sensor_id;sensor_type;location;lat;lon;timestamp;pressure;altitude;pressure_sealevel;temperature;humidity
70009;BME280;59542;37.950;-122.338;2022-12-10T00:01:21;101756.88;;;12.94;59.33
70009;BME280;59542;37.950;-122.338;2022-12-10T00:03:48;101758.28;;;12.90;60.40
70009;BME280;59542;37.950;-122.338;2022-12-10T00:06:20;101752.34;;;12.94;60.59
70009;BME280;59542;37.950;-122.338;2022-12-10T00:08:46;101753.56;;;12.99;60.60
70009;BME280;59542;37.950;-122.338;2022-12-10T00:11:14;101760.91;;;12.77;62.08
70009;BME280;59542;37.950;-122.338;2022-12-10T00:13:44;101761.03;;;12.62;62.80
70009;BME280;59542;37.950;-122.338;2022-12-10T00:16:12;101757.84;;;12.52;62.83
70009;BME280;59542;37.950;-122.338;2022-12-10T00:18:38;101755.41;;;12.57;62.68
70009;BME280;59542;37.950;-122.338;2022-12-10T00:21:07;101743.38;;;12.46;62.48
70009;BME280;59542;37.950;-122.338;2022-12-10T00:23:35;101749.97;;;11.94;63.97
70009;BME280;59542;37.950;-122.338;2022-12-10T00:26:15;101747.47;;;11.93;63.61
70009;BME280;59542;37.950;-122.338;2022-12-10T00:28:42;101751.72;;;11.66;64.57
70009;BME280;59542;37.950;-122.338;2022-12-10T00:31:14;101739.28;;;11.79;64.27
70009;BME280;59542;37.950;-122.338;2022-12-10T00:33:42;101732.50;;;11.62;64.97
70009;BME280;59542;37.950;-122.338;2022-12-10T00:36:17;101733.66;;;11.53;65.57
70009;BME280;59542;37.950;-122.338;2022-12-10T00:38:44;101728.00;;;11.26;66.10
70009;BME280;59542;37.950;-122.338;2022-12-10T00:41:12;101722.94;;;11.53;65.49
70009;BME280;59542;37.950;-122.338;2022-12-10T00:43:39;101718.09;;;11.63;65.24
70009;BME280;59542;37.950;-122.338;2022-12-10T00:46:06;101716.22;;;11.63;65.51
70009;BME280;59542;37.950;-122.338;2022-12-10T00:48:32;101714.78;;;11.61;65.59
70009;BME280;59542;37.950;-122.338;2022-12-10T00:51:04;101711.84;;;11.77;65.59
70009;BME280;59542;37.950;-122.338;2022-12-10T00:53:32;101711.44;;;11.59;65.98
70009;BME280;59542;37.950;-122.338;2022-12-10T00:55:59;101709.66;;;11.45;66.41
70009;BME280;59542;37.950;-122.338;2022-12-10T00:58:31;101706.28;;;11.57;66.68
70009;BME280;59542;37.950;-122.338;2022-12-10T01:01:16;101697.91;;;11.46;66.92
70009;BME280;59542;37.950;-122.338;2022-12-10T01:03:43;101697.75;;;11.32;67.44
70009;BME280;59542;37.950;-122.338;2022-12-10T01:06:13;101696.63;;;11.42;67.64
70009;BME280;59542;37.950;-122.338;2022-12-10T01:08:41;101692.03;;;11.35;67.90
70009;BME280;59542;37.950;-122.338;2022-12-10T01:11:08;101672.31;;;11.22;68.10
70009;BME280;59542;37.950;-122.338;2022-12-10T01:13:34;101681.34;;;11.21;68.29
70009;BME280;59542;37.950;-122.338;2022-12-10T01:16:05;101671.81;;;11.33;68.44
70009;BME280;59542;37.950;-122.338;2022-12-10T01:18:32;101689.59;;;11.41;68.38
70009;BME280;59542;37.950;-122.338;2022-12-10T01:21:04;101692.59;;;11.52;67.97
70009;BME280;59542;37.950;-122.338;2022-12-10T01:23:35;101688.06;;;11.31;68.77
70009;BME280;59542;37.950;-122.338;2022-12-10T01:26:04;101685.03;;;11.20;69.45
70009;BME280;59542;37.950;-122.338;2022-12-10T01:28:33;101675.81;;;11.44;68.99
70009;BME280;59542;37.950;-122.338;2022-12-10T01:31:09;101680.78;;;11.25;69.09
70009;BME280;59542;37.950;-122.338;2022-12-10T01:33:36;101686.97;;;11.26;68.84
70009;BME280;59542;37.950;-122.338;2022-12-10T01:36:08;101687.28;;;11.16;69.17
70009;BME280;59542;37.950;-122.338;2022-12-10T01:38:35;101678.44;;;11.01;69.57
70009;BME280;59542;37.950;-122.338;2022-12-10T01:41:01;101669.06;;;10.90;70.14
70009;BME280;59542;37.950;-122.338;2022-12-10T01:43:33;101662.22;;;10.88;70.24
70009;BME280;59542;37.950;-122.338;2022-12-10T01:46:14;101651.88;;;10.84;70.68
70009;BME280;59542;37.950;-122.338;2022-12-10T01:48:40;101652.41;;;10.95;70.52
70009;BME280;59542;37.950;-122.338;2022-12-10T01:51:07;101648.00;;;10.87;70.32
70009;BME280;59542;37.950;-122.338;2022-12-10T01:53:33;101646.97;;;10.88;70.51
70009;BME280;59542;37.950;-122.338;2022-12-10T01:55:59;101655.19;;;10.87;70.94
70009;BME280;59542;37.950;-122.338;2022-12-10T01:58:26;101646.88;;;10.96;70.53
70009;BME280;59542;37.950;-122.338;2022-12-10T02:01:06;101639.94;;;11.23;69.90
70009;BME280;59542;37.950;-122.338;2022-12-10T02:03:59;101634.38;;;11.25;69.82
70009;BME280;59542;37.950;-122.338;2022-12-10T02:18:16;101630.72;;;10.90;71.38
70009;BME280;59542;37.950;-122.338;2022-12-10T02:20:51;101631.56;;;10.75;72.03
70009;BME280;59542;37.950;-122.338;2022-12-10T02:23:30;101625.41;;;11.11;70.54
70009;BME280;59542;37.950;-122.338;2022-12-10T02:26:20;101619.13;;;11.25;69.70
70009;BME280;59542;37.950;-122.338;2022-12-10T02:29:23;101633.97;;;10.70;71.61
70009;BME280;59542;37.950;-122.338;2022-12-10T02:32:03;101632.19;;;10.92;71.18
70009;BME280;59542;37.950;-122.338;2022-12-10T02:34:34;101625.66;;;10.80;71.42
70009;BME280;59542;37.950;-122.338;2022-12-10T02:37:05;101621.69;;;11.12;70.72
70009;BME280;59542;37.950;-122.338;2022-12-10T02:39:38;101624.47;;;11.04;70.83
70009;BME280;59542;37.950;-122.338;2022-12-10T02:42:06;101634.66;;;10.94;71.47
70009;BME280;59542;37.950;-122.338;2022-12-10T02:44:36;101628.34;;;10.80;72.01
70009;BME280;59542;37.950;-122.338;2022-12-10T02:47:05;101630.81;;;10.81;72.28
70009;BME280;59542;37.950;-122.338;2022-12-10T02:49:32;101631.69;;;10.67;72.92
70009;BME280;59542;37.950;-122.338;2022-12-10T02:52:09;101630.69;;;10.68;72.72
70009;BME280;59542;37.950;-122.338;2022-12-10T02:54:42;101632.34;;;10.54;73.07
70009;BME280;59542;37.950;-122.338;2022-12-10T03:00:24;101632.56;;;10.23;74.83
70009;BME280;59542;37.950;-122.338;2022-12-10T03:05:52;101623.03;;;10.50;73.53
70009;BME280;59542;37.950;-122.338;2022-12-10T03:08:39;101628.94;;;10.46;73.61
70009;BME280;59542;37.950;-122.338;2022-12-10T03:11:14;101624.63;;;10.45;73.81
70009;BME280;59542;37.950;-122.338;2022-12-10T03:14:27;101616.94;;;10.42;73.66
70009;BME280;59542;37.950;-122.338;2022-12-10T03:17:00;101611.50;;;10.50;73.66
70009;BME280;59542;37.950;-122.338;2022-12-10T03:19:37;101612.78;;;10.54;72.69
70009;BME280;59542;37.950;-122.338;2022-12-10T03:22:07;101612.16;;;10.52;72.44
70009;BME280;59542;37.950;-122.338;2022-12-10T03:24:35;101609.34;;;10.60;72.28
70009;BME280;59542;37.950;-122.338;2022-12-10T03:27:04;101613.13;;;10.66;72.26
70009;BME280;59542;37.950;-122.338;2022-12-10T03:29:41;101602.69;;;10.71;72.07
70009;BME280;59542;37.950;-122.338;2022-12-10T03:32:11;101614.75;;;10.81;71.12
70009;BME280;59542;37.950;-122.338;2022-12-10T03:34:38;101614.22;;;10.71;71.55
70009;BME280;59542;37.950;-122.338;2022-12-10T03:37:05;101617.81;;;10.78;71.31
70009;BME280;59542;37.950;-122.338;2022-12-10T03:39:32;101602.84;;;10.84;70.95
70009;BME280;59542;37.950;-122.338;2022-12-10T03:41:58;101604.06;;;11.03;70.00
70009;BME280;59542;37.950;-122.338;2022-12-10T03:44:33;101614.72;;;10.96;70.21
70009;BME280;59542;37.950;-122.338;2022-12-10T03:47:00;101603.88;;;11.04;70.00
70009;BME280;59542;37.950;-122.338;2022-12-10T03:49:27;101609.69;;;11.29;68.71
70009;BME280;59542;37.950;-122.338;2022-12-10T03:51:53;101594.91;;;11.12;68.90
70009;BME280;59542;37.950;-122.338;2022-12-10T03:54:20;101598.47;;;10.98;69.18
70009;BME280;59542;37.950;-122.338;2022-12-10T03:56:46;101597.25;;;11.00;69.25
70009;BME280;59542;37.950;-122.338;2022-12-10T03:59:12;101607.16;;;11.00;69.44
70009;BME280;59542;37.950;-122.338;2022-12-10T04:01:40;101600.38;;;11.04;69.60
70009;BME280;59542;37.950;-122.338;2022-12-10T04:04:07;101595.66;;;11.06;69.59
70009;BME280;59542;37.950;-122.338;2022-12-10T04:06:33;101594.19;;;11.03;69.50
70009;BME280;59542;37.950;-122.338;2022-12-10T04:09:00;101600.38;;;11.04;69.42
70009;BME280;59542;37.950;-122.338;2022-12-10T04:11:26;101594.00;;;11.05;69.33
70009;BME280;59542;37.950;-122.338;2022-12-10T04:13:52;101605.72;;;11.04;69.33
70009;BME280;59542;37.950;-122.338;2022-12-10T04:16:38;101602.22;;;11.03;69.29
70009;BME280;59542;37.950;-122.338;2022-12-10T04:19:10;101606.75;;;11.03;69.33
70009;BME280;59542;37.950;-122.338;2022-12-10T04:21:38;101598.34;;;11.06;69.74
70009;BME280;59542;37.950;-122.338;2022-12-10T04:24:25;101605.16;;;11.08;69.89
70009;BME280;59542;37.950;-122.338;2022-12-10T04:27:12;101603.56;;;11.14;70.21
70009;BME280;59542;37.950;-122.338;2022-12-10T04:29:39;101601.41;;;11.03;70.55
70009;BME280;59542;37.950;-122.338;2022-12-10T04:32:06;101589.84;;;11.02;70.87
70009;BME280;59542;37.950;-122.338;2022-12-10T04:34:32;101592.72;;;11.01;70.95
70009;BME280;59542;37.950;-122.338;2022-12-10T04:36:59;101587.09;;;10.96;71.09
70009;BME280;59542;37.950;-122.338;2022-12-10T04:39:25;101587.81;;;11.04;71.36
70009;BME280;59542;37.950;-122.338;2022-12-10T04:41:52;101589.75;;;11.10;71.31
70009;BME280;59542;37.950;-122.338;2022-12-10T04:44:18;101592.72;;;11.01;71.56
70009;BME280;59542;37.950;-122.338;2022-12-10T04:46:45;101600.31;;;10.97;71.70
70009;BME280;59542;37.950;-122.338;2022-12-10T04:49:12;101598.47;;;10.98;71.60
70009;BME280;59542;37.950;-122.338;2022-12-10T04:51:38;101594.75;;;10.99;71.51
70009;BME280;59542;37.950;-122.338;2022-12-10T04:54:05;101601.28;;;11.11;71.30
70009;BME280;59542;37.950;-122.338;2022-12-10T04:56:32;101594.84;;;11.05;71.14
70009;BME280;59542;37.950;-122.338;2022-12-10T04:58:59;101589.41;;;10.99;71.48
70009;BME280;59542;37.950;-122.338;2022-12-10T05:01:26;101583.31;;;11.05;71.36
70009;BME280;59542;37.950;-122.338;2022-12-10T05:03:53;101583.03;;;11.00;71.17
70009;BME280;59542;37.950;-122.338;2022-12-10T05:06:20;101590.69;;;11.03;70.73
70009;BME280;59542;37.950;-122.338;2022-12-10T05:08:47;101590.06;;;11.01;70.42
70009;BME280;59542;37.950;-122.338;2022-12-10T05:11:16;101578.94;;;11.04;70.49
70009;BME280;59542;37.950;-122.338;2022-12-10T05:13:42;101574.03;;;11.07;70.49
70009;BME280;59542;37.950;-122.338;2022-12-10T05:16:10;101568.09;;;11.12;70.36
70009;BME280;59542;37.950;-122.338;2022-12-10T05:18:37;101556.16;;;11.15;70.21
70009;BME280;59542;37.950;-122.338;2022-12-10T05:21:06;101554.16;;;11.17;70.00
70009;BME280;59542;37.950;-122.338;2022-12-10T05:23:36;101557.75;;;11.09;70.36
70009;BME280;59542;37.950;-122.338;2022-12-10T05:26:11;101558.59;;;11.09;70.50
70009;BME280;59542;37.950;-122.338;2022-12-10T05:28:47;101556.16;;;11.15;70.48
70009;BME280;59542;37.950;-122.338;2022-12-10T05:31:22;101545.28;;;11.16;70.34
70009;BME280;59542;37.950;-122.338;2022-12-10T05:33:49;101538.44;;;11.14;70.42
70009;BME280;59542;37.950;-122.338;2022-12-10T05:36:18;101531.16;;;11.29;69.84
70009;BME280;59542;37.950;-122.338;2022-12-10T05:38:45;101529.44;;;11.21;70.24
70009;BME280;59542;37.950;-122.338;2022-12-10T05:41:16;101529.69;;;11.26;69.95
70009;BME280;59542;37.950;-122.338;2022-12-10T05:43:43;101521.16;;;11.16;70.17
70009;BME280;59542;37.950;-122.338;2022-12-10T05:46:21;101525.03;;;11.14;70.40
70009;BME280;59542;37.950;-122.338;2022-12-10T05:48:49;101528.22;;;11.24;70.38
70009;BME280;59542;37.950;-122.338;2022-12-10T05:51:18;101522.13;;;11.36;69.75
70009;BME280;59542;37.950;-122.338;2022-12-10T05:53:45;101523.06;;;11.22;70.75
70009;BME280;59542;37.950;-122.338;2022-12-10T05:56:14;101533.78;;;11.22;70.50
70009;BME280;59542;37.950;-122.338;2022-12-10T05:58:42;101533.09;;;11.14;70.57
70009;BME280;59542;37.950;-122.338;2022-12-10T06:01:12;101522.81;;;11.17;70.75
70009;BME280;59542;37.950;-122.338;2022-12-10T06:03:38;101516.19;;;11.13;70.97
70009;BME280;59542;37.950;-122.338;2022-12-10T06:06:05;101508.19;;;11.20;70.65
70009;BME280;59542;37.950;-122.338;2022-12-10T06:08:33;101491.97;;;11.28;70.63
70009;BME280;59542;37.950;-122.338;2022-12-10T06:11:07;101493.22;;;11.32;70.61
70009;BME280;59542;37.950;-122.338;2022-12-10T06:13:34;101487.88;;;11.32;70.43
70009;BME280;59542;37.950;-122.338;2022-12-10T06:16:09;101478.44;;;11.36;70.48
70009;BME280;59542;37.950;-122.338;2022-12-10T06:18:36;101470.09;;;11.24;70.54
70009;BME280;59542;37.950;-122.338;2022-12-10T06:21:08;101482.03;;;11.22;70.87
70009;BME280;59542;37.950;-122.338;2022-12-10T06:23:35;101488.22;;;11.22;70.65
70009;BME280;59542;37.950;-122.338;2022-12-10T06:26:24;101468.69;;;11.28;70.40
70009;BME280;59542;37.950;-122.338;2022-12-10T06:28:51;101471.66;;;11.12;70.65
70009;BME280;59542;37.950;-122.338;2022-12-10T06:31:18;101466.38;;;11.25;69.91
70009;BME280;59542;37.950;-122.338;2022-12-10T06:33:44;101462.38;;;11.15;69.84
70009;BME280;59542;37.950;-122.338;2022-12-10T06:36:13;101459.34;;;11.18;69.39
70009;BME280;59542;37.950;-122.338;2022-12-10T06:38:41;101450.75;;;11.01;70.04
70009;BME280;59542;37.950;-122.338;2022-12-10T06:41:09;101453.03;;;11.04;69.92
70009;BME280;59542;37.950;-122.338;2022-12-10T06:43:35;101455.59;;;11.12;69.41
70009;BME280;59542;37.950;-122.338;2022-12-10T06:46:10;101459.03;;;11.06;69.82
70009;BME280;59542;37.950;-122.338;2022-12-10T06:48:36;101463.81;;;11.10;69.44
70009;BME280;59542;37.950;-122.338;2022-12-10T06:51:03;101465.81;;;11.02;69.34
70009;BME280;59542;37.950;-122.338;2022-12-10T06:53:31;101454.47;;;11.00;69.86
70009;BME280;59542;37.950;-122.338;2022-12-10T06:55:59;101454.63;;;10.98;69.95
70009;BME280;59542;37.950;-122.338;2022-12-10T06:58:29;101462.81;;;10.90;70.27
70009;BME280;59542;37.950;-122.338;2022-12-10T07:01:07;101462.75;;;10.83;70.94
70009;BME280;59542;37.950;-122.338;2022-12-10T07:03:34;101457.88;;;10.94;70.88
70009;BME280;59542;37.950;-122.338;2022-12-10T07:06:01;101444.91;;;10.91;71.43
70009;BME280;59542;37.950;-122.338;2022-12-10T07:08:28;101436.47;;;10.94;72.25
70009;BME280;59542;37.950;-122.338;2022-12-10T07:10:54;101441.25;;;10.98;72.39
70009;BME280;59542;37.950;-122.338;2022-12-10T07:13:21;101438.13;;;10.95;72.47
70009;BME280;59542;37.950;-122.338;2022-12-10T07:15:47;101433.06;;;10.78;73.16
70009;BME280;59542;37.950;-122.338;2022-12-10T07:18:14;101428.94;;;10.82;73.19
70009;BME280;59542;37.950;-122.338;2022-12-10T07:20:40;101417.94;;;10.71;73.38
70009;BME280;59542;37.950;-122.338;2022-12-10T07:23:06;101417.75;;;10.72;73.32
70009;BME280;59542;37.950;-122.338;2022-12-10T07:25:33;101416.81;;;10.58;72.65
70009;BME280;59542;37.950;-122.338;2022-12-10T07:28:00;101409.06;;;10.70;71.22
70009;BME280;59542;37.950;-122.338;2022-12-10T07:30:26;101397.88;;;10.60;70.52
70009;BME280;59542;37.950;-122.338;2022-12-10T07:32:52;101396.53;;;10.71;69.92
70009;BME280;59542;37.950;-122.338;2022-12-10T07:35:18;101381.63;;;10.62;69.49
70009;BME280;59542;37.950;-122.338;2022-12-10T07:37:44;101383.84;;;10.58;70.17
70009;BME280;59542;37.950;-122.338;2022-12-10T07:40:11;101376.56;;;10.73;70.36
70009;BME280;59542;37.950;-122.338;2022-12-10T07:42:37;101376.78;;;10.72;70.74
70009;BME280;59542;37.950;-122.338;2022-12-10T07:45:04;101373.03;;;10.66;71.14
70009;BME280;59542;37.950;-122.338;2022-12-10T07:47:30;101365.03;;;10.73;72.17
70009;BME280;59542;37.950;-122.338;2022-12-10T07:49:56;101358.63;;;10.67;73.60
70009;BME280;59542;37.950;-122.338;2022-12-10T07:52:22;101356.31;;;10.64;74.05
70009;BME280;59542;37.950;-122.338;2022-12-10T07:54:48;101345.09;;;10.54;73.47
70009;BME280;59542;37.950;-122.338;2022-12-10T07:57:15;101335.00;;;10.49;73.41
70009;BME280;59542;37.950;-122.338;2022-12-10T07:59:41;101323.03;;;10.45;72.31
70009;BME280;59542;37.950;-122.338;2022-12-10T08:02:08;101322.19;;;10.45;71.87
70009;BME280;59542;37.950;-122.338;2022-12-10T08:04:35;101322.69;;;10.55;70.45
70009;BME280;59542;37.950;-122.338;2022-12-10T08:07:03;101315.28;;;10.57;69.69
70009;BME280;59542;37.950;-122.338;2022-12-10T08:09:29;101314.00;;;10.53;69.15
70009;BME280;59542;37.950;-122.338;2022-12-10T08:11:55;101307.78;;;10.46;69.43
70009;BME280;59542;37.950;-122.338;2022-12-10T08:14:22;101302.03;;;10.49;68.67
70009;BME280;59542;37.950;-122.338;2022-12-10T08:16:48;101301.81;;;10.44;68.50
70009;BME280;59542;37.950;-122.338;2022-12-10T08:19:14;101298.88;;;10.39;68.71
70009;BME280;59542;37.950;-122.338;2022-12-10T08:21:40;101302.38;;;10.39;68.60
70009;BME280;59542;37.950;-122.338;2022-12-10T08:24:08;101297.53;;;10.49;68.33
70009;BME280;59542;37.950;-122.338;2022-12-10T08:26:34;101291.16;;;10.50;67.71
70009;BME280;59542;37.950;-122.338;2022-12-10T08:29:01;101294.78;;;10.43;68.21
70009;BME280;59542;37.950;-122.338;2022-12-10T08:31:28;101290.50;;;10.48;67.51
70009;BME280;59542;37.950;-122.338;2022-12-10T08:33:54;101296.91;;;10.54;66.89
70009;BME280;59542;37.950;-122.338;2022-12-10T08:36:21;101290.50;;;10.48;66.86
70009;BME280;59542;37.950;-122.338;2022-12-10T08:38:47;101298.59;;;10.55;66.94
70009;BME280;59542;37.950;-122.338;2022-12-10T08:41:20;101289.06;;;10.46;67.09
70009;BME280;59542;37.950;-122.338;2022-12-10T08:43:47;101297.56;;;10.56;67.02
70009;BME280;59542;37.950;-122.338;2022-12-10T08:46:15;101287.28;;;10.60;66.65
70009;BME280;59542;37.950;-122.338;2022-12-10T08:48:42;101298.69;;;10.68;66.70
70009;BME280;59542;37.950;-122.338;2022-12-10T08:51:11;101283.25;;;10.70;66.51
70009;BME280;59542;37.950;-122.338;2022-12-10T08:53:39;101283.38;;;10.55;67.24
70009;BME280;59542;37.950;-122.338;2022-12-10T08:56:05;101281.94;;;10.60;66.86
70009;BME280;59542;37.950;-122.338;2022-12-10T08:58:32;101273.53;;;10.63;66.82
70009;BME280;59542;37.950;-122.338;2022-12-10T09:00:58;101269.19;;;10.62;66.94
70009;BME280;59542;37.950;-122.338;2022-12-10T09:03:24;101256.72;;;10.75;66.72
70009;BME280;59542;37.950;-122.338;2022-12-10T09:05:51;101250.88;;;10.65;66.92
70009;BME280;59542;37.950;-122.338;2022-12-10T09:08:17;101250.63;;;10.60;67.52
70009;BME280;59542;37.950;-122.338;2022-12-10T09:10:43;101245.13;;;10.68;67.37
70009;BME280;59542;37.950;-122.338;2022-12-10T09:13:10;101238.81;;;10.82;67.15
70009;BME280;59542;37.950;-122.338;2022-12-10T09:15:36;101242.06;;;10.71;67.29
70009;BME280;59542;37.950;-122.338;2022-12-10T09:18:02;101231.34;;;10.71;67.61
70009;BME280;59542;37.950;-122.338;2022-12-10T09:20:29;101234.25;;;10.76;67.95
70009;BME280;59542;37.950;-122.338;2022-12-10T09:22:55;101221.75;;;10.83;67.84
70009;BME280;59542;37.950;-122.338;2022-12-10T09:25:21;101218.91;;;10.92;67.31
70009;BME280;59542;37.950;-122.338;2022-12-10T09:27:47;101207.16;;;10.93;67.34
70009;BME280;59542;37.950;-122.338;2022-12-10T09:30:14;101209.66;;;10.94;67.22
70009;BME280;59542;37.950;-122.338;2022-12-10T09:32:41;101196.63;;;10.84;68.11
70009;BME280;59542;37.950;-122.338;2022-12-10T09:35:08;101196.63;;;10.84;67.88
70009;BME280;59542;37.950;-122.338;2022-12-10T09:37:34;101211.47;;;10.94;67.94
70009;BME280;59542;37.950;-122.338;2022-12-10T09:40:00;101203.88;;;10.97;67.62
70009;BME280;59542;37.950;-122.338;2022-12-10T09:50:34;101190.84;;;10.88;68.08
70009;BME280;59542;37.950;-122.338;2022-12-10T09:53:05;101192.91;;;10.86;67.78
70009;BME280;59542;37.950;-122.338;2022-12-10T09:55:42;101191.69;;;10.88;67.10
70009;BME280;59542;37.950;-122.338;2022-12-10T09:58:16;101189.06;;;10.95;67.75
70009;BME280;59542;37.950;-122.338;2022-12-10T10:00:50;101185.78;;;10.99;67.47
70009;BME280;59542;37.950;-122.338;2022-12-10T10:03:17;101171.97;;;11.02;67.20
70009;BME280;59542;37.950;-122.338;2022-12-10T10:05:47;101176.50;;;11.02;67.06
70009;BME280;59542;37.950;-122.338;2022-12-10T10:10:41;101173.63;;;11.03;67.49
70009;BME280;59542;37.950;-122.338;2022-12-10T10:15:36;101172.19;;;11.07;67.83
70009;BME280;59542;37.950;-122.338;2022-12-10T10:18:13;101176.13;;;11.12;67.47
70009;BME280;59542;37.950;-122.338;2022-12-10T10:20:41;101180.22;;;11.07;68.15
70009;BME280;59542;37.950;-122.338;2022-12-10T10:23:08;101175.09;;;11.19;67.36
70009;BME280;59542;37.950;-122.338;2022-12-10T10:25:38;101160.44;;;11.08;67.99
70009;BME280;59542;37.950;-122.338;2022-12-10T10:28:04;101178.81;;;11.12;68.36
70009;BME280;59542;37.950;-122.338;2022-12-10T10:30:30;101177.41;;;11.22;68.49
70009;BME280;59542;37.950;-122.338;2022-12-10T10:32:57;101161.28;;;11.16;69.26
70009;BME280;59542;37.950;-122.338;2022-12-10T10:35:41;101156.34;;;11.19;69.47
70009;BME280;59542;37.950;-122.338;2022-12-10T10:38:16;101140.88;;;11.08;69.67
70009;BME280;59542;37.950;-122.338;2022-12-10T10:40:45;101148.31;;;11.19;70.06
70009;BME280;59542;37.950;-122.338;2022-12-10T10:43:42;101142.75;;;11.14;70.89
70009;BME280;59542;37.950;-122.338;2022-12-10T10:46:21;101141.31;;;11.12;71.42
70009;BME280;59542;37.950;-122.338;2022-12-10T10:48:48;101143.09;;;10.98;71.98
70009;BME280;59542;37.950;-122.338;2022-12-10T10:56:21;101156.56;;;11.11;73.67
70009;BME280;59542;37.950;-122.338;2022-12-10T10:59:05;101157.16;;;11.06;73.88
70009;BME280;59542;37.950;-122.338;2022-12-10T11:01:45;101152.59;;;11.00;74.07
70009;BME280;59542;37.950;-122.338;2022-12-10T11:04:18;101157.91;;;10.94;74.31
70009;BME280;59542;37.950;-122.338;2022-12-10T11:06:49;101141.25;;;10.98;74.20
70009;BME280;59542;37.950;-122.338;2022-12-10T11:09:21;101132.81;;;11.01;74.04
70009;BME280;59542;37.950;-122.338;2022-12-10T11:11:52;101138.63;;;11.05;74.20
70009;BME280;59542;37.950;-122.338;2022-12-10T11:14:31;101127.03;;;11.04;73.69
70009;BME280;59542;37.950;-122.338;2022-12-10T11:17:24;101122.34;;;11.06;73.03
70009;BME280;59542;37.950;-122.338;2022-12-10T11:22:53;101113.84;;;10.90;74.41
70009;BME280;59542;37.950;-122.338;2022-12-10T11:28:47;101080.69;;;11.04;74.91
70009;BME280;59542;37.950;-122.338;2022-12-10T11:31:39;101074.50;;;10.97;75.85
70009;BME280;59542;37.950;-122.338;2022-12-10T11:34:33;101072.84;;;10.89;76.71
70009;BME280;59542;37.950;-122.338;2022-12-10T11:37:24;101069.97;;;10.97;76.70
70009;BME280;59542;37.950;-122.338;2022-12-10T11:45:52;101030.22;;;11.01;76.44
70009;BME280;59542;37.950;-122.338;2022-12-10T11:48:49;101021.53;;;10.99;75.76
70009;BME280;59542;37.950;-122.338;2022-12-10T11:51:29;101019.06;;;10.97;76.21
70009;BME280;59542;37.950;-122.338;2022-12-10T11:54:26;101019.91;;;10.98;76.01
70009;BME280;59542;37.950;-122.338;2022-12-10T11:57:14;101010.44;;;11.02;75.06
70009;BME280;59542;37.950;-122.338;2022-12-10T12:05:24;101005.25;;;10.87;75.73
70009;BME280;59542;37.950;-122.338;2022-12-10T12:08:00;100981.75;;;10.82;76.30
70009;BME280;59542;37.950;-122.338;2022-12-10T12:13:23;100967.59;;;10.89;76.25
70009;BME280;59542;37.950;-122.338;2022-12-10T12:18:47;100960.97;;;10.84;76.71
70009;BME280;59542;37.950;-122.338;2022-12-10T12:21:16;100946.75;;;10.97;76.05
70009;BME280;59542;37.950;-122.338;2022-12-10T12:26:15;100935.44;;;11.02;76.08
70009;BME280;59542;37.950;-122.338;2022-12-10T12:28:56;100936.88;;;10.91;76.64
70009;BME280;59542;37.950;-122.338;2022-12-10T12:31:39;100925.94;;;10.93;76.47
70009;BME280;59542;37.950;-122.338;2022-12-10T12:36:42;100907.00;;;10.74;77.63
70009;BME280;59542;37.950;-122.338;2022-12-10T12:39:34;100895.91;;;10.77;77.44
70009;BME280;59542;37.950;-122.338;2022-12-10T12:42:22;100887.00;;;10.77;77.78
70009;BME280;59542;37.950;-122.338;2022-12-10T12:44:59;100888.69;;;10.84;78.16
70009;BME280;59542;37.950;-122.338;2022-12-10T12:49:55;100874.25;;;10.86;78.79
70009;BME280;59542;37.950;-122.338;2022-12-10T12:52:45;100866.81;;;10.88;79.37
70009;BME280;59542;37.950;-122.338;2022-12-10T12:58:20;100860.25;;;10.77;80.58
70009;BME280;59542;37.950;-122.338;2022-12-10T13:00:51;100852.44;;;10.62;81.33
70009;BME280;59542;37.950;-122.338;2022-12-10T13:03:34;100848.53;;;10.58;81.69
70009;BME280;59542;37.950;-122.338;2022-12-10T13:06:25;100850.56;;;10.69;81.55
70009;BME280;59542;37.950;-122.338;2022-12-10T13:11:46;100838.41;;;10.53;81.97
70009;BME280;59542;37.950;-122.338;2022-12-10T13:14:36;100817.44;;;10.57;82.49
70009;BME280;59542;37.950;-122.338;2022-12-10T13:19:53;100829.97;;;10.70;82.00
70009;BME280;59542;37.950;-122.338;2022-12-10T13:22:41;100819.50;;;10.68;81.80
70009;BME280;59542;37.950;-122.338;2022-12-10T13:25:16;100798.47;;;10.78;81.15
70009;BME280;59542;37.950;-122.338;2022-12-10T13:27:58;100775.59;;;10.76;81.31
70009;BME280;59542;37.950;-122.338;2022-12-10T13:30:41;100783.44;;;10.64;81.64
70009;BME280;59542;37.950;-122.338;2022-12-10T13:33:17;100791.91;;;10.68;81.72
70009;BME280;59542;37.950;-122.338;2022-12-10T13:35:56;100777.25;;;10.77;82.45
70009;BME280;59542;37.950;-122.338;2022-12-10T13:38:25;100776.47;;;10.63;83.64
70009;BME280;59542;37.950;-122.338;2022-12-10T13:41:01;100779.34;;;10.68;84.22
70009;BME280;59542;37.950;-122.338;2022-12-10T13:43:58;100776.66;;;10.68;84.26
70009;BME280;59542;37.950;-122.338;2022-12-10T13:46:53;100778.91;;;10.65;84.23
70009;BME280;59542;37.950;-122.338;2022-12-10T13:49:28;100777.28;;;10.57;84.05
70009;BME280;59542;37.950;-122.338;2022-12-10T13:52:07;100763.50;;;10.53;85.11
70009;BME280;59542;37.950;-122.338;2022-12-10T13:55:55;100764.94;;;10.56;85.17
70009;BME280;59542;37.950;-122.338;2022-12-10T14:09:04;100692.84;;;10.68;84.48